createdAt,value
2019-04-07T00:00:48.643Z,21.75
2019-04-07T00:03:17.461Z,24.72
2019-04-07T00:05:46.307Z,24.52
2019-04-07T00:08:15.145Z,25.43
2019-04-07T00:10:44.676Z,24.72
2019-04-07T00:13:14.238Z,26.15
2019-04-07T00:15:43.341Z,26.75
2019-04-07T00:18:12.074Z,25.20
2019-04-07T00:20:40.770Z,54.13
2019-04-07T00:23:09.621Z,29.40
2019-04-07T00:25:38.641Z,27.85
2019-04-07T00:28:07.403Z,28.12
2019-04-07T00:30:36.491Z,26.25
2019-04-07T00:33:05.282Z,24.95
2019-04-07T00:35:33.951Z,23.98
2019-04-07T00:38:02.636Z,25.82
2019-04-07T00:40:33.962Z,25.32
2019-04-07T00:43:03.393Z,27.40
2019-04-07T00:45:32.022Z,25.75
2019-04-07T00:48:00.768Z,26.37
2019-04-07T00:50:30.710Z,26.23
2019-04-07T00:53:00.144Z,25.00
2019-04-07T00:55:28.842Z,25.30
2019-04-07T00:57:58.341Z,22.52
2019-04-07T01:00:29.098Z,25.08
2019-04-07T01:02:58.290Z,26.35
2019-04-07T01:05:35.371Z,25.80
2019-04-07T01:07:57.494Z,26.07
2019-04-07T01:10:26.296Z,24.95
2019-04-07T01:12:55.565Z,24.40
2019-04-07T01:15:24.292Z,24.92
2019-04-07T01:17:53.335Z,25.23
2019-04-07T01:20:22.704Z,24.07
2019-04-07T01:22:51.589Z,24.57
2019-04-07T01:25:20.387Z,26.25
2019-04-07T01:27:49.124Z,26.45
2019-04-07T01:30:18.363Z,30.37
2019-04-07T01:32:47.171Z,30.48
2019-04-07T01:35:15.833Z,32.48
2019-04-07T01:37:44.591Z,32.80
2019-04-07T01:40:13.503Z,31.15
2019-04-07T01:42:49.877Z,31.80
2019-04-07T01:45:36.954Z,32.00
2019-04-07T01:48:07.416Z,33.33
2019-04-07T01:50:53.927Z,29.72
2019-04-07T01:53:40.799Z,30.62
2019-04-07T01:56:11.108Z,28.90
2019-04-07T01:58:41.653Z,28.12
2019-04-07T02:01:27.350Z,27.87
2019-04-07T02:04:15.455Z,27.52
2019-04-07T02:07:01.851Z,28.23
2019-04-07T02:09:32.463Z,27.95
2019-04-07T02:12:18.961Z,28.15
2019-04-07T02:15:06.335Z,28.07
2019-04-07T02:17:37.215Z,28.83
2019-04-07T02:20:13.506Z,27.70
2019-04-07T02:22:46.668Z,27.98
2019-04-07T02:25:19.993Z,26.75
2019-04-07T02:27:51.109Z,28.02
2019-04-07T02:30:37.661Z,26.40
2019-04-07T02:33:10.948Z,28.60
2019-04-07T02:35:57.549Z,27.93
2019-04-07T02:38:39.720Z,26.70
2019-04-07T02:41:16.042Z,26.65
2019-04-07T02:43:55.626Z,27.42
2019-04-07T02:46:26.984Z,26.15
2019-04-07T02:49:04.164Z,26.82
2019-04-07T02:51:46.218Z,25.17
2019-04-07T02:54:17.326Z,27.95
2019-04-07T02:57:04.047Z,28.42
2019-04-07T02:59:50.206Z,28.40
2019-04-07T03:02:30.268Z,26.40
2019-04-07T03:05:09.184Z,28.35
2019-04-07T03:07:51.629Z,26.35
2019-04-07T03:10:40.538Z,28.50
2019-04-07T03:13:17.009Z,25.57
2019-04-07T03:15:49.373Z,25.75
2019-04-07T03:18:24.289Z,24.15
2019-04-07T03:21:05.528Z,22.75
2019-04-07T03:23:41.721Z,21.35
2019-04-07T03:26:30.039Z,21.40
2019-04-07T03:29:12.018Z,20.88
2019-04-07T03:31:51.609Z,21.05
2019-04-07T03:34:31.362Z,19.87
2019-04-07T03:37:30.388Z,18.42
2019-04-07T03:39:41.101Z,17.82
2019-04-07T03:42:27.311Z,16.60
2019-04-07T03:45:06.689Z,16.82
2019-04-07T03:47:37.624Z,16.20
2019-04-07T03:50:21.818Z,15.40
2019-04-07T03:55:36.575Z,16.73
2019-04-07T03:58:22.917Z,14.07
2019-04-07T04:01:01.375Z,15.70
2019-04-07T04:03:46.804Z,14.00
2019-04-07T04:06:17.479Z,14.98
2019-04-07T04:08:48.942Z,15.23
2019-04-07T04:11:20.232Z,15.43
2019-04-07T04:14:02.954Z,16.23
2019-04-07T04:16:32.503Z,14.65
2019-04-07T04:19:02.370Z,16.42
2019-04-07T04:21:31.174Z,15.55
2019-04-07T04:24:00.560Z,18.25
2019-04-07T04:26:30.732Z,24.43
2019-04-07T04:28:59.906Z,21.57
2019-04-07T04:31:29.408Z,19.87
2019-04-07T04:33:58.184Z,20.62
2019-04-07T04:36:27.254Z,18.02
2019-04-07T04:38:56.030Z,18.98
2019-04-07T04:41:25.205Z,20.20
2019-04-07T04:43:54.724Z,20.35
2019-04-07T04:46:23.893Z,20.17
2019-04-07T04:48:52.658Z,18.80
2019-04-07T04:51:21.417Z,17.40
2019-04-07T04:53:50.382Z,19.15
2019-04-07T04:56:19.944Z,19.73
2019-04-07T04:58:48.705Z,22.30
2019-04-07T05:01:17.549Z,23.77
2019-04-07T05:03:46.301Z,22.00
2019-04-07T05:06:15.028Z,21.12
2019-04-07T05:08:44.370Z,20.92
2019-04-07T05:11:13.504Z,19.90
2019-04-07T05:13:42.186Z,19.27
2019-04-07T05:16:10.805Z,19.98
2019-04-07T05:18:39.503Z,19.65
2019-04-07T05:21:08.528Z,21.00
2019-04-07T05:23:37.196Z,19.87
2019-04-07T05:26:05.804Z,19.85
2019-04-07T05:28:36.882Z,20.90
2019-04-07T05:31:05.623Z,19.12
2019-04-07T05:33:34.549Z,18.90
2019-04-07T05:36:03.753Z,18.75
2019-04-07T05:38:32.550Z,20.12
2019-04-07T05:41:01.871Z,20.37
2019-04-07T05:43:30.578Z,18.45
2019-04-07T05:45:59.410Z,19.30
2019-04-07T05:48:28.294Z,20.02
2019-04-07T05:51:00.500Z,20.25
2019-04-07T05:53:27.760Z,18.00
2019-04-07T05:55:56.615Z,20.27
2019-04-07T05:58:25.357Z,19.42
2019-04-07T06:00:54.755Z,19.00
2019-04-07T06:03:23.534Z,18.90
2019-04-07T06:05:52.812Z,19.02
2019-04-07T06:08:29.509Z,20.52
2019-04-07T06:10:56.550Z,20.52
2019-04-07T06:13:22.515Z,20.40
2019-04-07T06:15:52.237Z,18.77
2019-04-07T06:18:21.834Z,19.57
2019-04-07T06:20:50.510Z,19.10
2019-04-07T06:23:22.752Z,19.90
2019-04-07T06:25:50.119Z,20.27
2019-04-07T06:28:19.297Z,19.15
2019-04-07T06:30:48.359Z,20.82
2019-04-07T06:33:17.488Z,19.07
2019-04-07T06:35:47.470Z,19.17
2019-04-07T06:38:16.650Z,19.55
2019-04-07T06:40:45.929Z,17.27
2019-04-07T06:43:14.629Z,18.82
2019-04-07T06:45:57.342Z,19.12
2019-04-07T06:48:26.704Z,17.40
2019-04-07T06:50:59.341Z,16.90
2019-04-07T06:53:32.537Z,16.00
2019-04-07T06:58:40.863Z,17.25
2019-04-07T07:01:11.106Z,16.35
2019-04-07T07:03:47.605Z,17.30
2019-04-07T07:06:18.487Z,17.92
2019-04-07T07:08:53.018Z,16.17
2019-04-07T07:11:31.627Z,15.72
2019-04-07T07:14:02.159Z,15.90
2019-04-07T07:16:32.578Z,18.32
2019-04-07T07:19:06.320Z,16.15
2019-04-07T07:21:39.420Z,16.80
2019-04-07T07:24:07.181Z,18.85
2019-04-07T07:26:36.633Z,17.12
2019-04-07T07:29:06.701Z,17.23
2019-04-07T07:31:35.790Z,17.42
2019-04-07T07:34:05.062Z,16.05
2019-04-07T07:36:33.875Z,15.80
2019-04-07T07:39:08.294Z,16.42
2019-04-07T07:41:33.052Z,16.15
2019-04-07T07:44:03.777Z,17.05
2019-04-07T07:46:32.309Z,18.15
2019-04-07T07:49:02.076Z,14.98
2019-04-07T07:51:31.400Z,17.55
2019-04-07T07:54:01.164Z,15.13
2019-04-07T07:56:31.530Z,17.27
2019-04-07T07:59:01.795Z,15.68
2019-04-07T08:01:31.066Z,14.03
2019-04-07T08:03:59.878Z,14.85
2019-04-07T08:06:28.578Z,15.40
2019-04-07T08:09:07.418Z,14.90
2019-04-07T08:11:30.768Z,14.80
2019-04-07T08:13:57.983Z,14.55
2019-04-07T08:16:29.373Z,15.00
2019-04-07T08:18:59.207Z,12.45
2019-04-07T08:21:28.012Z,14.13
2019-04-07T08:23:56.855Z,12.18
2019-04-07T08:26:26.042Z,13.00
2019-04-07T08:28:54.838Z,12.50
2019-04-07T08:31:24.121Z,12.13
2019-04-07T08:33:53.713Z,11.53
2019-04-07T08:36:22.714Z,11.70
2019-04-07T08:39:00.624Z,10.55
2019-04-07T08:41:29.356Z,10.00
2019-04-07T08:43:59.796Z,10.32
2019-04-07T08:46:32.060Z,8.63
2019-04-07T08:49:03.150Z,10.08
2019-04-07T08:51:32.618Z,7.42
2019-04-07T08:54:04.529Z,7.35
2019-04-07T08:56:32.952Z,7.67
2019-04-07T08:59:01.709Z,7.47
2019-04-07T09:01:31.431Z,8.28
2019-04-07T09:04:00.275Z,5.87
2019-04-07T09:06:29.594Z,6.17
2019-04-07T09:08:58.966Z,6.25
2019-04-07T09:11:28.373Z,6.58
2019-04-07T09:13:57.129Z,6.72
2019-04-07T09:16:28.027Z,6.12
2019-04-07T09:19:03.795Z,6.37
2019-04-07T09:21:38.855Z,5.92
2019-04-07T09:24:08.258Z,6.47
2019-04-07T09:26:44.550Z,6.15
2019-04-07T09:29:28.184Z,5.58
2019-04-07T09:31:58.838Z,5.70
2019-04-07T09:34:32.359Z,5.17
2019-04-07T09:37:03.230Z,5.20
2019-04-07T09:39:54.699Z,5.50
2019-04-07T09:42:23.827Z,4.92
2019-04-07T09:45:10.971Z,4.75
2019-04-07T09:47:57.574Z,5.20
2019-04-07T09:50:43.757Z,4.95
2019-04-07T09:53:23.035Z,5.42
2019-04-07T09:56:02.679Z,4.75
2019-04-07T09:58:48.020Z,5.80
2019-04-07T10:01:27.671Z,4.55
2019-04-07T10:04:01.394Z,5.47
2019-04-07T10:06:49.572Z,4.90
2019-04-07T10:09:28.950Z,4.45
2019-04-07T10:12:10.714Z,4.37
2019-04-07T10:14:53.106Z,4.25
2019-04-07T10:17:39.480Z,4.90
2019-04-07T10:20:11.176Z,4.80
2019-04-07T10:22:41.503Z,4.17
2019-04-07T10:25:15.508Z,4.40
2019-04-07T10:28:02.854Z,4.47
2019-04-07T10:30:33.184Z,3.45
2019-04-07T10:33:13.166Z,4.05
2019-04-07T10:35:52.564Z,3.58
2019-04-07T10:38:35.111Z,3.60
2019-04-07T10:41:08.165Z,4.15
2019-04-07T10:43:45.159Z,3.20
2019-04-07T10:46:21.547Z,3.42
2019-04-07T10:48:54.730Z,2.87
2019-04-07T10:51:25.302Z,3.75
2019-04-07T10:53:56.205Z,2.52
2019-04-07T10:56:26.620Z,2.75
2019-04-07T10:59:05.622Z,3.62
2019-04-07T11:01:51.321Z,4.05
2019-04-07T11:04:21.841Z,2.95
2019-04-07T11:06:54.708Z,3.08
2019-04-07T11:09:40.574Z,3.22
2019-04-07T11:12:16.765Z,3.77
2019-04-07T11:14:55.951Z,2.92
2019-04-07T11:17:32.493Z,3.67
2019-04-07T11:20:08.294Z,2.85
2019-04-07T11:22:55.089Z,3.40
2019-04-07T11:25:28.404Z,4.40
2019-04-07T11:28:13.763Z,3.77
2019-04-07T11:31:00.486Z,3.85
2019-04-07T11:33:30.781Z,3.08
2019-04-07T11:36:20.120Z,3.20
2019-04-07T11:38:54.858Z,5.80
2019-04-07T11:41:28.770Z,4.67
2019-04-07T11:44:05.372Z,3.67
2019-04-07T11:46:50.871Z,3.30
2019-04-07T11:49:24.680Z,3.87
2019-04-07T11:52:01.628Z,3.75
2019-04-07T11:54:49.121Z,3.02
2019-04-07T11:57:32.018Z,4.58
2019-04-07T12:00:02.502Z,3.55
2019-04-07T12:02:49.331Z,3.02
2019-04-07T12:05:32.066Z,3.83
2019-04-07T12:08:09.328Z,5.70
2019-04-07T12:10:58.635Z,6.15
2019-04-07T12:13:23.676Z,4.85
2019-04-07T12:16:03.630Z,3.98
2019-04-07T12:18:50.175Z,3.30
2019-04-07T12:21:22.593Z,4.60
2019-04-07T12:23:54.152Z,4.33
2019-04-07T12:26:42.448Z,2.75
2019-04-07T12:29:24.406Z,5.10
2019-04-07T12:32:09.665Z,3.47
2019-04-07T12:34:46.404Z,2.92
2019-04-07T12:37:15.551Z,2.50
2019-04-07T12:39:49.518Z,3.30
2019-04-07T12:42:26.697Z,2.80
2019-04-07T12:45:14.767Z,3.50
2019-04-07T12:47:45.840Z,4.03
2019-04-07T12:50:32.829Z,4.30
2019-04-07T12:53:04.874Z,4.22
2019-04-07T12:55:35.152Z,3.25
2019-04-07T12:58:17.458Z,2.98
2019-04-07T13:00:57.850Z,2.75
2019-04-07T13:03:28.884Z,2.12
2019-04-07T13:06:04.074Z,3.10
2019-04-07T13:08:40.359Z,3.17
2019-04-07T13:11:26.478Z,1.60
2019-04-07T13:14:01.631Z,2.65
2019-04-07T13:16:38.108Z,2.85
2019-04-07T13:19:11.763Z,2.50
2019-04-07T13:21:56.523Z,2.22
2019-04-07T13:24:38.920Z,2.77
2019-04-07T13:27:17.167Z,2.17
2019-04-07T13:29:53.166Z,2.27
2019-04-07T13:32:43.192Z,2.42
2019-04-07T13:35:26.930Z,2.42
2019-04-07T13:38:02.846Z,2.37
2019-04-07T13:40:40.723Z,3.25
2019-04-07T13:43:13.458Z,2.37
2019-04-07T13:45:46.209Z,2.58
2019-04-07T13:48:33.405Z,2.30
2019-04-07T13:51:21.571Z,4.37
2019-04-07T13:53:59.866Z,3.52
2019-04-07T13:56:50.549Z,1.60
2019-04-07T13:59:40.026Z,2.17
2019-04-07T14:02:19.639Z,2.47
2019-04-07T14:05:11.113Z,2.80
2019-04-07T14:07:39.881Z,2.30
2019-04-07T14:10:10.333Z,2.55
2019-04-07T14:12:50.055Z,2.92
2019-04-07T14:15:32.361Z,2.10
2019-04-07T14:18:14.390Z,1.70
2019-04-07T14:20:57.823Z,1.62
2019-04-07T14:23:28.680Z,2.30
2019-04-07T14:25:59.077Z,2.52
2019-04-07T14:28:29.804Z,2.25
2019-04-07T14:31:00.953Z,2.80
2019-04-07T14:33:48.003Z,3.85
2019-04-07T14:36:35.047Z,2.95
2019-04-07T14:39:22.176Z,2.42
2019-04-07T14:42:00.962Z,2.30
2019-04-07T14:44:40.085Z,4.20
2019-04-07T14:47:22.487Z,3.67
2019-04-07T14:50:09.314Z,3.20
2019-04-07T14:52:43.449Z,2.60
2019-04-07T14:55:14.015Z,2.60
2019-04-07T14:57:53.565Z,2.50
2019-04-07T15:00:29.682Z,3.37
2019-04-07T15:02:58.287Z,3.30
2019-04-07T15:05:28.803Z,3.87
2019-04-07T15:08:02.019Z,3.67
2019-04-07T15:10:50.294Z,2.20
2019-04-07T15:13:23.913Z,5.80
2019-04-07T15:15:51.678Z,3.27
2019-04-07T15:18:21.581Z,4.97
2019-04-07T15:20:50.551Z,4.15
2019-04-07T15:23:19.859Z,3.80
2019-04-07T15:25:49.408Z,4.45
2019-04-07T15:28:18.059Z,4.30
2019-04-07T15:30:48.255Z,4.60
2019-04-07T15:33:17.766Z,3.50
2019-04-07T15:35:49.446Z,2.90
2019-04-07T15:38:16.848Z,3.60
2019-04-07T15:40:45.955Z,3.90
2019-04-07T15:43:14.671Z,3.52
2019-04-07T15:45:44.536Z,3.17
2019-04-07T15:48:13.739Z,3.60
2019-04-07T15:50:42.881Z,2.72
2019-04-07T15:53:14.366Z,3.40
2019-04-07T15:55:52.655Z,3.25
2019-04-07T15:58:14.940Z,3.72
2019-04-07T16:00:44.203Z,3.67
2019-04-07T16:03:15.745Z,3.20
2019-04-07T16:05:46.075Z,3.87
2019-04-07T16:08:14.406Z,4.58
2019-04-07T16:10:43.142Z,4.05
2019-04-07T16:13:11.860Z,4.00
2019-04-07T16:15:42.867Z,4.15
2019-04-07T16:18:11.128Z,5.70
2019-04-07T16:20:40.707Z,6.37
2019-04-07T16:23:10.638Z,6.10
2019-04-07T16:25:40.580Z,7.00
2019-04-07T16:28:12.888Z,7.87
2019-04-07T16:30:40.755Z,7.20
2019-04-07T16:33:10.009Z,6.72
2019-04-07T16:35:38.722Z,7.42
2019-04-07T16:38:07.454Z,8.53
2019-04-07T16:40:36.217Z,7.45
2019-04-07T16:43:13.285Z,7.50
2019-04-07T16:45:35.259Z,8.60
2019-04-07T16:48:04.981Z,8.68
2019-04-07T16:50:35.056Z,8.70
2019-04-07T16:53:06.511Z,8.45
2019-04-07T16:55:40.221Z,7.50
2019-04-07T16:58:10.081Z,8.53
2019-04-07T17:00:39.812Z,8.53
2019-04-07T17:03:09.868Z,7.80
2019-04-07T17:05:39.699Z,8.13
2019-04-07T17:08:08.725Z,8.58
2019-04-07T17:10:37.431Z,8.05
2019-04-07T17:13:16.708Z,8.93
2019-04-07T17:15:39.599Z,9.15
2019-04-07T17:18:09.670Z,8.93
2019-04-07T17:20:38.477Z,8.75
2019-04-07T17:23:08.482Z,9.28
2019-04-07T17:25:37.591Z,8.40
2019-04-07T17:28:06.494Z,9.53
2019-04-07T17:30:38.003Z,9.43
2019-04-07T17:33:06.440Z,11.03
2019-04-07T17:35:35.856Z,9.88
2019-04-07T17:38:06.918Z,10.65
2019-04-07T17:40:37.633Z,10.30
2019-04-07T17:43:11.784Z,9.95
2019-04-07T17:45:45.120Z,9.60
2019-04-07T17:48:37.410Z,9.90
2019-04-07T17:51:15.500Z,9.30
2019-04-07T17:53:51.734Z,8.88
2019-04-07T17:56:33.798Z,7.78
2019-04-07T17:59:19.278Z,8.43
2019-04-07T18:01:52.519Z,7.90
2019-04-07T18:04:24.983Z,7.22
2019-04-07T18:06:56.066Z,8.23
2019-04-07T18:09:44.919Z,11.35
2019-04-07T18:12:33.093Z,10.23
2019-04-07T18:15:09.871Z,10.80
2019-04-07T18:17:46.021Z,8.83
2019-04-07T18:20:21.517Z,9.13
2019-04-07T18:22:54.653Z,9.10
2019-04-07T18:25:34.366Z,10.87
2019-04-07T18:28:05.549Z,10.55
2019-04-07T18:30:39.519Z,9.55
2019-04-07T18:33:16.399Z,10.63
2019-04-07T18:35:45.228Z,11.15
2019-04-07T18:38:24.300Z,10.55
2019-04-07T18:41:11.092Z,9.78
2019-04-07T18:43:52.188Z,9.05
2019-04-07T18:46:31.476Z,9.20
2019-04-07T18:49:18.061Z,8.50
2019-04-07T18:51:49.455Z,8.33
2019-04-07T18:54:26.918Z,8.95
2019-04-07T18:57:03.952Z,9.53
2019-04-07T18:59:34.270Z,11.57
2019-04-07T19:02:04.622Z,8.43
2019-04-07T19:04:34.994Z,7.87
2019-04-07T19:07:05.381Z,8.58
2019-04-07T19:09:39.233Z,9.55
2019-04-07T19:14:48.891Z,9.20
2019-04-07T19:17:17.004Z,8.80
2019-04-07T19:19:53.311Z,9.58
2019-04-07T19:22:26.466Z,9.38
2019-04-07T19:25:05.117Z,9.83
2019-04-07T19:27:46.142Z,10.63
2019-04-07T19:30:38.710Z,10.98
2019-04-07T19:33:14.835Z,9.78
2019-04-07T19:35:48.649Z,9.78
2019-04-07T19:41:06.842Z,9.75
2019-04-07T19:43:49.999Z,11.12
2019-04-07T19:46:29.202Z,9.70
2019-04-07T19:48:59.033Z,11.45
2019-04-07T19:51:31.995Z,10.60
2019-04-07T19:54:13.578Z,9.60
2019-04-07T19:56:43.660Z,12.95
2019-04-07T19:59:19.796Z,11.48
2019-04-07T20:02:06.037Z,12.78
2019-04-07T20:04:53.535Z,9.05
2019-04-07T20:07:28.593Z,9.63
2019-04-07T20:09:57.726Z,10.28
2019-04-07T20:12:45.423Z,9.93
2019-04-07T20:15:36.484Z,10.00
2019-04-07T20:18:24.495Z,11.10
2019-04-07T20:20:57.293Z,13.15
2019-04-07T20:23:30.414Z,12.37
2019-04-07T20:26:08.754Z,14.78
2019-04-07T20:28:45.054Z,12.45
2019-04-07T20:31:24.084Z,12.53
2019-04-07T20:34:09.806Z,18.25
2019-04-07T20:36:40.292Z,13.32
2019-04-07T20:39:11.438Z,13.35
2019-04-07T20:41:43.091Z,14.38
2019-04-07T20:44:33.873Z,13.72
2019-04-07T20:47:01.944Z,13.20
2019-04-07T20:49:50.230Z,14.33
2019-04-07T20:52:24.026Z,15.45
2019-04-07T20:54:54.967Z,12.23
2019-04-07T20:57:41.183Z,13.50
2019-04-07T21:00:29.324Z,12.53
2019-04-07T21:03:13.861Z,12.88
2019-04-07T21:05:46.349Z,13.03
2019-04-07T21:08:33.554Z,13.03
2019-04-07T21:11:07.386Z,13.60
2019-04-07T21:13:52.647Z,13.70
2019-04-07T21:16:31.537Z,13.60
2019-04-07T21:19:17.596Z,15.18
2019-04-07T21:21:47.920Z,14.28
2019-04-07T21:24:21.265Z,14.55
2019-04-07T21:26:52.006Z,15.13
2019-04-07T21:29:34.481Z,17.57
2019-04-07T21:32:10.910Z,14.13
2019-04-07T21:34:41.250Z,16.62
2019-04-07T21:37:28.378Z,14.38
2019-04-07T21:40:04.107Z,14.25
2019-04-07T21:42:42.571Z,14.07
2019-04-07T21:45:12.970Z,14.00
2019-04-07T21:48:01.483Z,13.45
2019-04-07T21:50:34.333Z,13.75
2019-04-07T21:53:07.163Z,14.63
2019-04-07T21:55:46.292Z,15.50
2019-04-07T21:58:16.683Z,15.93
2019-04-07T22:00:47.686Z,14.80
2019-04-07T22:03:33.238Z,16.17
2019-04-07T22:06:18.423Z,15.38
2019-04-07T22:09:03.461Z,14.73
2019-04-07T22:11:32.638Z,15.40
2019-04-07T22:14:04.076Z,15.28
2019-04-07T22:16:32.813Z,14.87
2019-04-07T22:19:01.908Z,15.98
2019-04-07T22:21:30.617Z,15.75
2019-04-07T22:24:01.329Z,16.60
2019-04-07T22:26:29.775Z,17.30
2019-04-07T22:29:02.124Z,15.75
2019-04-07T22:31:31.076Z,17.05
2019-04-07T22:34:01.223Z,17.77
2019-04-07T22:36:30.116Z,16.85
2019-04-07T22:39:01.265Z,19.95
2019-04-07T22:41:29.130Z,17.95
2019-04-07T22:43:57.904Z,19.10
2019-04-07T22:46:27.334Z,17.80
2019-04-07T22:48:58.324Z,19.25
2019-04-07T22:51:26.475Z,21.35
2019-04-07T22:53:57.543Z,20.82
2019-04-07T22:56:25.556Z,22.32
2019-04-07T22:58:54.254Z,23.35
2019-04-07T23:01:23.114Z,23.57
2019-04-07T23:03:51.935Z,24.82
2019-04-07T23:06:21.080Z,23.07
2019-04-07T23:08:50.902Z,22.75
2019-04-07T23:11:20.425Z,23.55
2019-04-07T23:13:49.343Z,24.55
2019-04-07T23:16:18.920Z,25.00
2019-04-07T23:18:48.099Z,26.10
2019-04-07T23:21:17.240Z,25.37
2019-04-07T23:23:46.251Z,26.52
2019-04-07T23:26:15.909Z,26.60
2019-04-07T23:28:44.738Z,25.88
2019-04-07T23:31:13.833Z,26.48
2019-04-07T23:33:42.664Z,25.68
2019-04-07T23:36:11.647Z,26.07
2019-04-07T23:38:41.126Z,26.97
2019-04-07T23:41:09.929Z,25.95
2019-04-07T23:43:39.516Z,25.32
2019-04-07T23:46:19.890Z,26.95
2019-04-07T23:48:38.832Z,25.77
2019-04-07T23:51:07.610Z,25.75
2019-04-07T23:54:11.122Z,28.10
2019-04-07T23:56:41.625Z,25.77
2019-04-07T23:59:10.603Z,26.95
